This is the latest recevied weather packets stored in our database for station/object DK4SDR-10. If no packets are shown the sender has not sent any weather packets the latest 10 day(s).
| Time | Temp. | Humidity | Pressure | Rain* | Wind** | Luminosity | Snow |
|---|---|---|---|---|---|---|---|
| 1777642110 | 38.89° C | 12% | 1025.3 hPa | - | - | - | - |
| 1777641210 | 38.33° C | 13% | 1025.5 hPa | - | - | - | - |
| 1777640310 | 37.78° C | 13% | 1025.6 hPa | - | - | - | - |
| 1777639410 | 37.22° C | 13% | 1025.9 hPa | - | - | - | - |
| 1777638510 | 36.67° C | 14% | 1026 hPa | - | - | - | - |
| 1777637610 | 35.56° C | 14% | 1026.2 hPa | - | - | - | - |
| 1777636710 | 34.44° C | 15% | 1026.4 hPa | - | - | - | - |
| 1777635810 | 33.33° C | 16% | 1026.4 hPa | - | - | - | - |
| 1777634910 | 32.78° C | 17% | 1026.6 hPa | - | - | - | - |
| 1777634010 | 31.11° C | 18% | 1026.9 hPa | - | - | - | - |
| 1777633110 | 29.44° C | 19% | 1027.1 hPa | - | - | - | - |
| 1777632210 | 27.78° C | 21% | 1027.2 hPa | - | - | - | - |
| 1777631310 | 26.11° C | 23% | 1027.3 hPa | - | - | - | - |
| 1777630410 | 25° C | 25% | 1027.5 hPa | - | - | - | - |
| 1777629510 | 22.22° C | 28% | 1027.7 hPa | - | - | - | - |
| 1777628610 | 20° C | 31% | 1027.7 hPa | - | - | - | - |
| 1777627710 | 17.78° C | 35% | 1027.8 hPa | - | - | - | - |
| 1777626810 | 15.56° C | 37% | 1027.8 hPa | - | - | - | - |
| 1777625910 | 13.89° C | 40% | 1027.9 hPa | - | - | - | - |
| 1777625010 | 12.78° C | 40% | 1028 hPa | - | - | - | - |
| 1777624110 | 11.67° C | 41% | 1028 hPa | - | - | - | - |
| 1777623210 | 10.56° C | 44% | 1028 hPa | - | - | - | - |
| 1777622310 | 9.44° C | 48% | 1028.1 hPa | - | - | - | - |
| 1777621410 | 8.33° C | 48% | 1028.2 hPa | - | - | - | - |
| 1777620511 | 7.78° C | 43% | 1028.3 hPa | - | - | - | - |
* Rain since midnight (hover to see other rain measurements)
** Current wind speed in m/s (hover to see current wind gust speed)